Fronton, Texas
Current Conditions -  °F | °C
As of 1:55 PM on Thursday 18 Dec 2014 (Local Time) from KAPY Reporting Station
Haze Haze  
Wind Chill: 59°   Ceiling: 300
Heat Index: 59°   Visibility: 1.2mi
Dew Point: 59°   Wind: 5mph
Humidity: 100%   Direction: 310°NW
Pressure: 30"   Gusts: NA
Location:  26.5818°N, 98.985°W
Report Text: KAPY 181955Z AUTO 31004KT 1 1/4SM BR OVC003 15/15 A3000 RMK AO2 T01500150
Loading
Personal Weather Stations






























Interactive Weather Map New forecast layout! Learn more

10-Day Weather Forecast

Advertisements
Track Severe Weather on mobile